Time;durP1;ratioP1;P1;durP2;ratioP2;P2;SDS_P1;SDS_P2;PMS_P1;PMS_P2;Temp;Humidity;BMP_temperature;BMP_pressure;BME280_temperature;BME280_humidity;BME280_pressure;Samples;Min_cycle;Max_cycle;Signal;HPM_P1;HPM_P2
2022/11/26 00:02:14;;;;;;;7.00;3.43;;;;;;;5.48;100.00;152769.19;4994123;28;20524;-85
2022/11/26 00:04:59;;;;;;;6.07;4.03;;;;;;;5.46;100.00;152764.00;4996553;28;20429;-85
2022/11/26 00:07:50;;;;;;;7.57;3.90;;;;;;;5.40;100.00;152748.56;4997347;28;20443;-85
2022/11/26 00:10:36;;;;;;;6.77;3.77;;;;;;;5.37;100.00;152742.09;4995812;28;20456;-85
2022/11/26 00:13:25;;;;;;;6.40;3.90;;;;;;;5.37;100.00;152740.81;4994508;28;20452;-85
2022/11/26 00:16:12;;;;;;;12.10;4.40;;;;;;;5.35;100.00;152735.63;4996724;28;20436;-85
2022/11/26 00:18:58;;;;;;;6.20;4.23;;;;;;;5.30;100.00;152722.72;5011206;28;20448;-85
2022/11/26 00:21:43;;;;;;;9.57;4.20;;;;;;;5.26;100.00;152713.75;5014652;28;20471;-85
2022/11/26 00:24:29;;;;;;;6.60;4.23;;;;;;;5.22;100.00;152703.41;4996098;28;20452;-85
2022/11/26 00:27:14;;;;;;;7.80;5.10;;;;;;;5.21;100.00;152699.56;4996088;28;20491;-85
2022/11/26 00:30:00;;;;;;;8.67;4.40;;;;;;;5.20;100.00;152698.25;4996286;28;20418;-85
2022/11/26 00:32:46;;;;;;;9.97;5.40;;;;;;;5.19;100.00;152694.41;4996191;28;20445;-85
2022/11/26 00:35:31;;;;;;;6.60;4.93;;;;;;;5.16;100.00;152686.66;4996211;28;20401;-85
2022/11/26 00:38:18;;;;;;;5.97;4.50;;;;;;;5.17;100.00;152689.22;4995710;28;20544;-85
2022/11/26 00:41:03;;;;;;;5.00;4.50;;;;;;;5.16;100.00;152686.66;4993624;28;20466;-85
2022/11/26 00:43:49;;;;;;;5.50;4.80;;;;;;;5.16;100.00;152687.97;4987475;28;20433;-85
2022/11/26 00:46:35;;;;;;;6.47;4.60;;;;;;;5.20;100.00;152696.94;4989201;28;20955;-85
2022/11/26 00:49:21;;;;;;;7.00;5.30;;;;;;;5.24;100.00;152707.28;4995402;28;20916;-85
2022/11/26 00:52:21;;;;;;;7.60;5.00;;;;;;;5.27;100.00;152715.03;4995878;28;20449;-86
2022/11/26 00:55:11;;;;;;;10.07;5.20;;;;;;;5.27;100.00;152716.28;4995069;28;20815;-85
2022/11/26 00:57:57;;;;;;;5.87;5.27;;;;;;;5.30;100.00;152722.72;4995634;28;20512;-86
2022/11/26 01:00:42;;;;;;;5.30;4.80;;;;;;;5.32;100.00;152727.91;4990756;28;20433;-85
2022/11/26 01:03:29;;;;;;;5.70;4.50;;;;;;;5.33;100.00;152731.78;4986599;28;20432;-85
2022/11/26 01:06:16;;;;;;;7.20;5.57;;;;;;;5.35;100.00;152735.63;4995816;28;20438;-86
2022/11/26 01:09:01;;;;;;;8.53;4.20;;;;;;;5.38;100.00;152743.34;4994682;28;21088;-85
2022/11/26 01:11:47;;;;;;;5.73;4.47;;;;;;;5.41;100.00;152751.09;4995292;28;20464;-86
2022/11/26 01:14:32;;;;;;;9.83;3.70;;;;;;;5.43;100.00;152756.25;4998582;28;20424;-85
2022/11/26 01:17:18;;;;;;;7.23;4.07;;;;;;;5.46;100.00;152764.00;4994473;28;20453;-85
2022/11/26 01:20:15;;;;;;;4.90;3.13;;;;;;;5.50;100.00;152774.31;4995341;28;20767;-85
2022/11/26 01:23:00;;;;;;;4.50;3.57;;;;;;;5.52;100.00;152780.78;4987602;28;20461;-85
2022/11/26 01:25:46;;;;;;;5.80;3.03;;;;;;;5.56;100.00;152788.50;4980222;28;20409;-85
2022/11/26 01:28:32;;;;;;;6.50;3.20;;;;;;;5.59;100.00;152797.50;4975982;28;20462;-86
2022/11/26 01:31:18;;;;;;;9.53;3.30;;;;;;;5.60;100.00;152800.09;4983691;28;20793;-85
2022/11/26 01:34:03;;;;;;;3.73;2.83;;;;;;;5.63;100.00;152806.56;4972182;28;20804;-86
2022/11/26 01:36:50;;;;;;;3.80;2.57;;;;;;;5.67;100.00;152818.16;4978581;28;20546;-86
2022/11/26 01:39:35;;;;;;;7.67;2.40;;;;;;;5.70;100.00;152825.88;4978726;28;20507;-85
2022/11/26 01:42:25;;;;;;;3.90;2.90;;;;;;;5.72;100.00;152831.03;4995033;28;20468;-85
2022/11/26 01:45:16;;;;;;;10.00;3.20;;;;;;;5.74;100.00;152834.94;4996490;28;20452;-85
2022/11/26 01:48:01;;;;;;;5.00;2.80;;;;;;;5.75;100.00;152837.47;4994990;28;20539;-86
2022/11/26 01:50:56;;;;;;;5.30;2.60;;;;;;;5.77;100.00;152843.94;4974358;28;20418;-86
2022/11/26 01:53:48;;;;;;;8.77;3.47;;;;;;;5.79;100.00;152849.13;4990239;28;20808;-85
2022/11/26 01:56:36;;;;;;;7.47;2.63;;;;;;;5.78;100.00;152845.22;4994934;28;20524;-85
2022/11/26 01:59:25;;;;;;;4.50;3.43;;;;;;;5.78;100.00;152845.22;4993755;28;20461;-85
2022/11/26 02:02:11;;;;;;;7.10;3.10;;;;;;;5.75;100.00;152838.78;5006099;28;20765;-87
2022/11/26 02:05:03;;;;;;;5.97;3.50;;;;;;;5.75;100.00;152838.78;5003941;28;20923;-85
2022/11/26 02:07:49;;;;;;;3.30;2.47;;;;;;;5.75;100.00;152838.78;4982471;28;20803;-85
2022/11/26 02:10:36;;;;;;;6.10;3.17;;;;;;;5.75;100.00;152838.78;4975236;28;20893;-87
2022/11/26 02:13:22;;;;;;;5.40;3.30;;;;;;;5.76;100.00;152841.38;4981974;28;20465;-85
2022/11/26 02:16:11;;;;;;;5.53;2.77;;;;;;;5.76;100.00;152840.06;4983969;28;20576;-84
2022/11/26 02:19:11;;;;;;;8.30;3.57;;;;;;;5.77;100.00;152842.69;4993991;28;20440;-85
2022/11/26 02:22:01;;;;;;;5.90;3.20;;;;;;;5.78;100.00;152845.22;4994069;28;20464;-87
2022/11/26 02:24:49;;;;;;;5.17;2.40;;;;;;;5.79;100.00;152849.13;4993134;28;20982;-85
2022/11/26 02:28:08;;;;;;;7.97;3.07;;;;;;;5.82;100.00;152855.56;4975139;28;20493;-87
2022/11/26 02:30:59;;;;;;;6.03;3.33;;;;;;;5.83;100.00;152858.13;4985611;28;20453;-87
2022/11/26 02:33:50;;;;;;;5.33;3.23;;;;;;;5.82;100.00;152856.88;4993711;28;20803;-87
2022/11/26 02:36:40;;;;;;;7.13;3.30;;;;;;;5.84;100.00;152862.00;4993969;28;20581;-86
2022/11/26 02:39:27;;;;;;;4.90;2.70;;;;;;;5.83;100.00;152859.41;4994083;28;20445;-87
2022/11/26 02:42:23;;;;;;;4.83;2.90;;;;;;;5.86;100.00;152865.91;4994304;28;20551;-86
2022/11/26 02:45:11;;;;;;;3.70;2.93;;;;;;;5.86;100.00;152865.91;4974911;28;20961;-86
2022/11/26 02:48:00;;;;;;;3.90;3.50;;;;;;;5.86;100.00;152867.22;4980690;28;20573;-86
2022/11/26 02:50:48;;;;;;;3.87;2.90;;;;;;;5.85;100.00;152863.38;5013779;28;20739;-86
2022/11/26 02:53:35;;;;;;;7.87;3.87;;;;;;;5.86;100.00;152865.91;4987922;28;20941;-87
2022/11/26 02:56:22;;;;;;;4.60;2.80;;;;;;;5.86;100.00;152867.22;4997635;28;20472;-87
2022/11/26 02:59:08;;;;;;;6.37;2.73;;;;;;;5.86;100.00;152865.91;4974348;28;20394;-87
2022/11/26 03:01:56;;;;;;;4.00;2.73;;;;;;;5.83;100.00;152859.41;4985433;28;20528;-86
2022/11/26 03:04:46;;;;;;;4.53;2.37;;;;;;;5.82;100.00;152856.88;4982220;28;20449;-86
2022/11/26 03:07:32;;;;;;;6.40;3.03;;;;;;;5.84;100.00;152862.00;4989785;28;20452;-86
2022/11/26 03:10:19;;;;;;;5.83;2.90;;;;;;;5.81;100.00;152852.97;4999796;28;20581;-86
2022/11/26 03:13:04;;;;;;;7.23;3.20;;;;;;;5.82;100.00;152855.56;4974346;28;20529;-86
2022/11/26 03:15:49;;;;;;;6.23;3.23;;;;;;;5.82;100.00;152855.56;4994825;28;20457;-86
2022/11/26 03:18:35;;;;;;;5.67;2.83;;;;;;;5.82;100.00;152856.88;4997515;28;20409;-86
2022/11/26 03:21:21;;;;;;;5.40;3.10;;;;;;;5.86;100.00;152867.22;4978433;28;20522;-86
2022/11/26 03:24:07;;;;;;;4.90;2.90;;;;;;;5.88;100.00;152871.06;4980240;28;20410;-86
2022/11/26 03:26:52;;;;;;;7.47;3.27;;;;;;;5.88;100.00;152872.34;4997232;28;20457;-86
2022/11/26 03:29:37;;;;;;;6.70;3.10;;;;;;;5.93;100.00;152885.25;4996646;28;20943;-87
2022/11/26 03:32:23;;;;;;;5.23;3.30;;;;;;;5.95;100.00;152890.44;4997684;28;20818;-87
2022/11/26 03:35:08;;;;;;;6.43;2.70;;;;;;;5.95;100.00;152890.44;5004892;28;20445;-87
2022/11/26 03:37:55;;;;;;;3.83;2.60;;;;;;;5.97;100.00;152894.28;4988353;28;20858;-87
2022/11/26 03:40:41;;;;;;;5.70;2.90;;;;;;;5.97;100.00;152895.59;4997692;28;20429;-87
2022/11/26 03:43:26;;;;;;;5.70;2.83;;;;;;;5.96;100.00;152891.69;4996796;28;21040;-87
2022/11/26 03:46:11;;;;;;;6.13;3.07;;;;;;;5.99;100.00;152900.75;5011279;28;20465;-87
2022/11/26 03:48:57;;;;;;;7.40;3.00;;;;;;;6.01;100.00;152905.88;4997165;28;20412;-87
2022/11/26 03:51:42;;;;;;;3.87;2.50;;;;;;;6.02;100.00;152907.19;4996549;28;20456;-87
2022/11/26 03:54:29;;;;;;;6.70;3.10;;;;;;;6.06;100.00;152918.78;4983611;28;20528;-87
2022/11/26 03:57:15;;;;;;;5.37;3.40;;;;;;;6.06;100.00;152918.78;4989991;28;20793;-87
2022/11/26 04:00:00;;;;;;;6.03;3.20;;;;;;;6.02;100.00;152908.50;4997485;28;20924;-87
2022/11/26 04:02:46;;;;;;;4.90;2.90;;;;;;;6.01;100.00;152904.66;4989877;28;20564;-86
2022/11/26 04:05:31;;;;;;;7.20;3.20;;;;;;;5.98;100.00;152898.16;4991937;28;20451;-86
2022/11/26 04:08:17;;;;;;;4.70;3.43;;;;;;;5.94;100.00;152887.84;4996966;28;20632;-87
2022/11/26 04:11:04;;;;;;;4.60;2.60;;;;;;;5.87;100.00;152868.50;5005394;28;20455;-87
2022/11/26 04:13:49;;;;;;;6.53;3.10;;;;;;;5.81;100.00;152854.28;5007081;28;20531;-87
2022/11/26 04:16:34;;;;;;;5.80;2.87;;;;;;;5.76;100.00;152841.38;4996871;28;20787;-87
2022/11/26 04:19:19;;;;;;;5.63;3.53;;;;;;;5.71;100.00;152828.47;4981387;28;20517;-87
2022/11/26 04:22:05;;;;;;;3.23;2.50;;;;;;;5.71;100.00;152828.47;4993654;28;20441;-86
2022/11/26 04:24:50;;;;;;;6.20;3.33;;;;;;;5.70;100.00;152825.88;4976086;28;20413;-87
2022/11/26 04:27:37;;;;;;;7.70;3.07;;;;;;;5.68;100.00;152820.75;4984328;28;20440;-86
2022/11/26 04:30:22;;;;;;;4.60;2.40;;;;;;;5.64;100.00;152810.41;4996455;28;20464;-87
2022/11/26 04:33:07;;;;;;;5.10;3.30;;;;;;;5.67;100.00;152816.84;4995632;28;20959;-86
2022/11/26 04:35:53;;;;;;;4.43;2.97;;;;;;;5.67;100.00;152818.16;4986461;28;20440;-87
2022/11/26 04:38:38;;;;;;;4.80;3.10;;;;;;;5.68;100.00;152820.75;5011963;28;20439;-87
2022/11/26 04:41:24;;;;;;;5.30;2.70;;;;;;;5.69;100.00;152823.34;5003010;28;20530;-87
2022/11/26 04:44:10;;;;;;;5.50;3.20;;;;;;;5.70;100.00;152825.88;4981078;28;20815;-87
2022/11/26 04:46:56;;;;;;;4.93;3.00;;;;;;;5.72;100.00;152831.03;4995992;28;20601;-87
2022/11/26 04:49:41;;;;;;;6.37;3.50;;;;;;;5.72;100.00;152831.03;4981294;28;20421;-87
2022/11/26 04:52:26;;;;;;;3.83;2.97;;;;;;;5.74;100.00;152836.22;4996275;28;20436;-87
2022/11/26 04:55:11;;;;;;;4.03;3.23;;;;;;;5.74;100.00;152836.22;4995132;28;20512;-86
2022/11/26 04:57:57;;;;;;;6.27;3.30;;;;;;;5.69;100.00;152823.34;4989917;28;21031;-87
2022/11/26 05:00:43;;;;;;;5.50;3.40;;;;;;;5.69;100.00;152822.03;4981643;28;20913;-87
2022/11/26 05:03:29;;;;;;;6.00;3.50;;;;;;;5.68;100.00;152820.75;5009722;28;20468;-86
2022/11/26 05:06:15;;;;;;;5.00;4.37;;;;;;;5.61;100.00;152801.41;4994729;28;20500;-87
2022/11/26 05:09:00;;;;;;;6.73;4.47;;;;;;;5.54;100.00;152785.91;4980581;28;20455;-87
2022/11/26 05:11:45;;;;;;;5.03;3.53;;;;;;;5.48;100.00;152769.19;4976102;28;20516;-87
2022/11/26 05:14:30;;;;;;;5.23;3.93;;;;;;;5.42;100.00;152753.69;4989997;28;20449;-87
2022/11/26 05:17:17;;;;;;;5.97;4.50;;;;;;;5.37;100.00;152742.09;4994945;28;20531;-87
2022/11/26 05:20:04;;;;;;;7.50;4.07;;;;;;;5.33;100.00;152730.47;4995265;28;20433;-87
2022/11/26 05:22:49;;;;;;;5.43;3.93;;;;;;;5.27;100.00;152716.28;4987945;28;20814;-87
2022/11/26 05:25:35;;;;;;;10.87;3.70;;;;;;;5.20;100.00;152696.94;4978013;28;20519;-87
2022/11/26 05:28:20;;;;;;;6.33;4.03;;;;;;;5.19;100.00;152694.41;4981987;28;20971;-87
2022/11/26 05:31:06;;;;;;;5.00;3.90;;;;;;;5.15;100.00;152684.06;4994455;28;20560;-87
2022/11/26 05:33:52;;;;;;;6.20;3.80;;;;;;;5.08;100.00;152666.03;4995008;28;20782;-87
2022/11/26 05:36:37;;;;;;;6.40;3.30;;;;;;;5.01;100.00;152647.97;4982145;28;20805;-87
2022/11/26 05:39:23;;;;;;;9.70;4.87;;;;;;;4.96;100.00;152635.06;4995011;28;20468;-86
2022/11/26 05:42:08;;;;;;;5.70;3.77;;;;;;;4.89;100.00;152618.34;4994233;28;20456;-86
2022/11/26 05:44:53;;;;;;;6.73;4.33;;;;;;;4.84;100.00;152606.72;4991567;28;20446;-86
2022/11/26 05:47:38;;;;;;;7.00;4.20;;;;;;;4.84;100.00;152605.47;4988117;28;20931;-86
2022/11/26 05:50:25;;;;;;;8.60;4.70;;;;;;;4.80;100.00;152596.44;4994742;28;20452;-86
2022/11/26 05:53:12;;;;;;;7.83;4.13;;;;;;;4.82;100.00;152600.28;4987570;28;20810;-86
2022/11/26 05:55:58;;;;;;;6.03;4.40;;;;;;;4.88;100.00;152615.75;4983972;28;20437;-86
2022/11/26 05:58:43;;;;;;;11.13;4.80;;;;;;;4.88;100.00;152617.06;4993294;28;20441;-86
2022/11/26 06:01:29;;;;;;;10.03;5.37;;;;;;;4.87;100.00;152614.47;4994081;28;20457;-86
2022/11/26 06:04:14;;;;;;;8.60;4.73;;;;;;;4.83;100.00;152602.88;4994594;28;20460;-86
2022/11/26 06:07:01;;;;;;;5.50;4.77;;;;;;;4.70;100.00;152569.38;4996866;28;20526;-86
2022/11/26 06:09:46;;;;;;;7.47;5.47;;;;;;;4.61;100.00;152547.47;4975348;28;20398;-86
2022/11/26 06:12:32;;;;;;;7.40;5.30;;;;;;;4.50;100.00;152517.84;4991170;28;20484;-86
2022/11/26 06:15:17;;;;;;;5.50;4.60;;;;;;;4.48;100.00;152512.66;4994305;28;20405;-86
2022/11/26 06:18:02;;;;;;;8.00;5.90;;;;;;;4.45;100.00;152506.22;4994350;28;20463;-86
2022/11/26 06:20:48;;;;;;;6.13;4.97;;;;;;;4.40;100.00;152493.34;4993655;28;20441;-85
2022/11/26 06:23:35;;;;;;;6.23;4.97;;;;;;;4.34;100.00;152477.94;4994206;28;20481;-87
2022/11/26 06:26:20;;;;;;;7.93;5.23;;;;;;;4.27;100.00;152461.16;4993734;28;20465;-86
2022/11/26 06:29:05;;;;;;;7.27;5.27;;;;;;;4.24;100.00;152453.44;4993705;28;20460;-86
2022/11/26 06:31:51;;;;;;;11.90;6.20;;;;;;;4.28;100.00;152463.75;4985809;28;20485;-87
2022/11/26 06:34:36;;;;;;;9.23;5.67;;;;;;;4.26;100.00;152458.56;4985724;28;20535;-86
2022/11/26 06:37:21;;;;;;;8.37;4.73;;;;;;;4.28;100.00;152462.47;4991925;28;20879;-86
2022/11/26 06:40:11;;;;;;;5.77;4.23;;;;;;;4.22;100.00;152447.00;5005012;28;20424;-86
2022/11/26 06:42:56;;;;;;;5.90;4.60;;;;;;;4.19;100.00;152439.25;4993249;28;20536;-86
2022/11/26 06:45:42;;;;;;;8.13;4.63;;;;;;;4.21;100.00;152444.41;4992611;28;20448;-86
2022/11/26 06:48:27;;;;;;;10.83;5.83;;;;;;;4.18;100.00;152437.97;4981183;28;20413;-86
2022/11/26 06:51:14;;;;;;;8.70;5.90;;;;;;;4.12;100.00;152421.25;4992178;28;20440;-86
2022/11/26 06:53:59;;;;;;;7.93;5.70;;;;;;;4.07;100.00;152409.66;4983806;28;21033;-86
2022/11/26 06:56:46;;;;;;;6.07;4.80;;;;;;;4.03;100.00;152399.34;4992875;28;20960;-86
2022/11/26 06:59:31;;;;;;;7.40;4.53;;;;;;;4.02;100.00;152395.50;4988533;28;20536;-86
2022/11/26 07:02:17;;;;;;;7.40;5.30;;;;;;;3.97;100.00;152383.88;4992376;28;20473;-86
2022/11/26 07:05:02;;;;;;;6.27;4.47;;;;;;;3.96;100.00;152380.03;4976809;28;20456;-86
2022/11/26 07:07:47;;;;;;;5.53;4.57;;;;;;;3.93;100.00;152372.28;4992908;28;20476;-86
2022/11/26 07:10:33;;;;;;;5.47;4.60;;;;;;;3.88;100.00;152360.72;4988872;28;20482;-86
2022/11/26 07:13:19;;;;;;;8.67;6.07;;;;;;;3.91;100.00;152367.16;4991971;28;20421;-88
2022/11/26 07:16:06;;;;;;;7.73;4.90;;;;;;;3.94;100.00;152374.88;5010048;28;20495;-87
2022/11/26 07:18:53;;;;;;;8.30;6.40;;;;;;;4.00;100.00;152391.59;4986856;28;20793;-88
2022/11/26 07:21:38;;;;;;;7.20;5.50;;;;;;;4.04;100.00;152400.63;4989837;28;20465;-87
2022/11/26 07:24:24;;;;;;;5.97;5.37;;;;;;;4.08;100.00;152412.22;4984159;28;20456;-88
2022/11/26 07:27:10;;;;;;;8.03;5.23;;;;;;;4.13;100.00;152423.84;4999463;28;20444;-88
2022/11/26 07:29:56;;;;;;;7.93;5.13;;;;;;;4.18;100.00;152437.97;4980068;28;20448;-88
2022/11/26 07:32:42;;;;;;;6.67;4.97;;;;;;;4.22;100.00;152448.28;4991735;28;20448;-88
2022/11/26 07:35:34;;;;;;;7.23;4.80;;;;;;;4.29;100.00;152465.00;4992194;28;20401;-88
2022/11/26 07:38:19;;;;;;;7.77;5.73;;;;;;;4.34;100.00;152477.94;4990996;28;20501;-87
2022/11/26 07:41:06;;;;;;;7.00;5.50;;;;;;;4.40;100.00;152492.06;4998194;28;20467;-87
2022/11/26 07:43:52;;;;;;;7.10;6.00;;;;;;;4.45;100.00;152506.22;5008791;28;20453;-87
2022/11/26 07:46:38;;;;;;;7.57;5.87;;;;;;;4.50;100.00;152519.09;5011912;28;20490;-87
2022/11/26 07:49:24;;;;;;;8.20;6.27;;;;;;;4.53;100.00;152526.84;4991048;28;20433;-87
2022/11/26 07:52:09;;;;;;;7.80;5.40;;;;;;;4.57;100.00;152535.88;4972780;28;20429;-87
2022/11/26 07:54:54;;;;;;;7.70;5.97;;;;;;;4.63;100.00;152552.59;4996170;28;20460;-87
2022/11/26 07:57:40;;;;;;;10.13;5.87;;;;;;;4.69;100.00;152566.78;4996804;28;20463;-87
2022/11/26 08:00:25;;;;;;;8.20;5.37;;;;;;;4.73;100.00;152578.41;4992804;28;20659;-87
2022/11/26 08:03:12;;;;;;;8.37;5.53;;;;;;;4.79;100.00;152592.59;4995562;28;20410;-87
2022/11/26 08:05:57;;;;;;;6.33;5.27;;;;;;;4.82;100.00;152601.56;4979425;28;20460;-87
2022/11/26 08:08:42;;;;;;;7.47;5.43;;;;;;;4.87;100.00;152614.47;4975755;28;20418;-87
2022/11/26 08:11:29;;;;;;;6.70;5.50;;;;;;;4.90;100.00;152622.19;4987882;28;20479;-87
2022/11/26 08:14:15;;;;;;;7.10;5.80;;;;;;;4.94;100.00;152631.22;4989910;28;20790;-87
2022/11/26 08:17:00;;;;;;;10.73;5.77;;;;;;;4.99;100.00;152642.81;4995619;28;20516;-87
2022/11/26 08:19:47;;;;;;;11.83;5.90;;;;;;;5.04;100.00;152655.69;4995220;28;20410;-87
2022/11/26 08:22:33;;;;;;;10.53;6.83;;;;;;;5.07;100.00;152663.44;4975920;28;20454;-88
2022/11/26 08:25:18;;;;;;;6.80;5.57;;;;;;;5.10;100.00;152672.47;4986578;28;20607;-87
2022/11/26 08:28:04;;;;;;;7.07;5.80;;;;;;;5.15;100.00;152685.38;5004941;28;20535;-87
2022/11/26 08:30:49;;;;;;;8.53;6.30;;;;;;;5.17;100.00;152689.22;4988659;28;20894;-87
2022/11/26 08:33:35;;;;;;;10.03;6.70;;;;;;;5.19;100.00;152694.41;4988732;28;20480;-87
2022/11/26 08:36:22;;;;;;;8.93;6.50;;;;;;;5.20;100.00;152696.94;4992712;28;20433;-87
2022/11/26 08:39:07;;;;;;;9.00;6.57;;;;;;;5.23;100.00;152706.00;4985400;28;20472;-77
2022/11/26 08:41:52;;;;;;;8.77;6.83;;;;;;;5.26;100.00;152712.44;5006978;28;20465;-77
2022/11/26 08:44:38;;;;;;;10.17;7.40;;;;;;;5.30;100.00;152724.03;4989462;28;20548;-77
2022/11/26 08:47:23;;;;;;;9.27;6.63;;;;;;;5.34;100.00;152733.06;4998008;28;20463;-77
2022/11/26 08:50:09;;;;;;;11.13;7.20;;;;;;;5.37;100.00;152742.09;4996669;28;20432;-77
2022/11/26 08:52:56;;;;;;;7.43;6.40;;;;;;;5.40;100.00;152748.56;4991621;28;20468;-77
2022/11/26 08:55:41;;;;;;;11.53;6.07;;;;;;;5.41;100.00;152751.09;4987144;28;20421;-77
2022/11/26 08:58:27;;;;;;;9.43;6.67;;;;;;;5.42;100.00;152755.00;4987492;28;20516;-77
2022/11/26 09:01:14;;;;;;;9.77;5.90;;;;;;;5.44;100.00;152760.13;4989588;28;20456;-77
2022/11/26 09:04:03;;;;;;;11.40;6.77;;;;;;;5.48;100.00;152769.19;4992496;28;20970;-77
2022/11/26 09:06:51;;;;;;;8.47;6.43;;;;;;;5.52;100.00;152779.47;4993075;28;20476;-77
2022/11/26 09:09:38;;;;;;;9.80;7.00;;;;;;;5.52;100.00;152780.78;4981861;28;20932;-77
2022/11/26 09:12:24;;;;;;;8.87;6.90;;;;;;;5.55;100.00;152787.22;4987059;28;20634;-77
2022/11/26 09:15:10;;;;;;;8.73;6.07;;;;;;;5.61;100.00;152802.72;4986366;28;20425;-77
2022/11/26 09:17:55;;;;;;;7.63;6.03;;;;;;;5.69;100.00;152823.34;4993354;28;20464;-77
2022/11/26 09:20:43;;;;;;;12.10;6.40;;;;;;;5.75;100.00;152837.47;4993552;28;20916;-77
2022/11/26 09:23:29;;;;;;;9.70;6.90;;;;;;;5.80;100.00;152851.66;5000293;28;20488;-77
2022/11/26 09:26:15;;;;;;;13.63;8.90;;;;;;;5.86;100.00;152867.22;4998512;28;20440;-77
2022/11/26 09:29:01;;;;;;;9.70;6.70;;;;;;;5.95;100.00;152889.16;4992794;28;20572;-77
2022/11/26 09:31:48;;;;;;;9.83;7.10;;;;;;;5.99;100.00;152900.75;4994045;28;20445;-77
2022/11/26 09:34:35;;;;;;;11.80;7.60;;;;;;;6.06;100.00;152918.78;4993618;28;20580;-77
2022/11/26 09:37:21;;;;;;;9.10;6.60;;;;;;;6.16;100.00;152943.31;4992297;28;20457;-77
2022/11/26 09:40:09;;;;;;;11.97;7.00;;;;;;;6.30;100.00;152978.16;5001850;28;20433;-77
2022/11/26 09:43:02;;;;;;;9.33;6.27;;;;;;;6.30;100.00;152978.16;5004391;28;20540;-77
2022/11/26 09:45:50;;;;;;;10.50;5.57;;;;;;;6.31;100.00;152980.72;4987341;28;21073;-77
2022/11/26 09:48:36;;;;;;;11.93;6.33;;;;;;;6.31;100.00;152982.03;4975264;28;20972;-77
2022/11/26 09:51:21;;;;;;;16.27;7.97;;;;;;;6.33;100.00;152985.91;4975225;28;20461;-77
2022/11/26 09:54:09;;;;;;;11.37;7.80;;;;;;;6.38;100.00;153000.06;4992735;28;20457;-77
2022/11/26 09:57:02;;;;;;;11.90;9.10;;;;;;;6.39;100.00;153002.66;4979261;28;20919;-77
2022/11/26 09:59:50;;;;;;;16.67;11.47;;;;;;;6.39;100.00;153002.66;5004026;28;21223;-77
2022/11/26 10:02:37;;;;;;;14.73;9.97;;;;;;;6.39;100.00;153001.38;4993704;28;20495;-77
2022/11/26 10:05:23;;;;;;;11.70;8.80;;;;;;;6.44;100.00;153014.28;4987479;28;20456;-77
2022/11/26 10:08:20;;;;;;;12.30;8.50;;;;;;;6.38;100.00;152998.81;4993503;28;20902;-77
2022/11/26 10:11:09;;;;;;;17.90;10.30;;;;;;;6.35;100.00;152992.38;4993402;28;20424;-77
2022/11/26 10:14:03;;;;;;;13.33;9.40;;;;;;;6.34;100.00;152988.47;4992071;28;20441;-77
2022/11/26 10:16:57;;;;;;;15.53;11.40;;;;;;;6.35;100.00;152991.06;4993742;28;20779;-77
2022/11/26 10:19:53;;;;;;;10.13;7.70;;;;;;;6.36;100.00;152994.91;4993500;28;20895;-78
2022/11/26 10:22:46;;;;;;;11.80;7.50;;;;;;;6.36;100.00;152993.63;4990048;28;20453;-77
2022/11/26 10:25:41;;;;;;;9.80;7.20;;;;;;;6.39;100.00;153001.38;4984640;28;20517;-77
2022/11/26 10:28:35;;;;;;;8.63;6.17;;;;;;;6.41;100.00;153006.53;4984667;28;20453;-77
2022/11/26 10:31:22;;;;;;;12.97;6.00;;;;;;;6.44;100.00;153014.28;4969213;28;20812;-77
2022/11/26 10:34:14;;;;;;;13.30;5.20;;;;;;;6.45;100.00;153016.88;5000283;28;20524;-78
2022/11/26 10:36:59;;;;;;;6.67;4.40;;;;;;;6.44;100.00;153014.28;5008248;28;20493;-77
2022/11/26 10:39:45;;;;;;;8.00;4.90;;;;;;;6.42;100.00;153009.13;4980535;28;20448;-77
2022/11/26 10:42:40;;;;;;;6.60;5.37;;;;;;;6.65;100.00;153068.47;4988706;28;20512;-77
2022/11/26 10:45:27;;;;;;;7.70;4.77;;;;;;;6.66;100.00;153071.06;4992395;28;20460;-77
2022/11/26 10:48:20;;;;;;;5.50;3.43;;;;;;;6.67;100.00;153074.91;4979869;28;20532;-77
2022/11/26 10:51:13;;;;;;;7.30;3.50;;;;;;;6.65;100.00;153069.78;4978292;28;20444;-77
2022/11/26 10:54:00;;;;;;;7.70;3.97;;;;;;;6.67;100.00;153073.66;4991027;28;20450;-77
2022/11/26 10:56:47;;;;;;;7.80;4.40;;;;;;;6.66;100.00;153072.38;4990455;28;20496;-77
2022/11/26 10:59:35;;;;;;;7.30;3.87;;;;;;;6.68;100.00;153076.22;4990708;28;20437;-77
2022/11/26 11:02:29;;;;;;;11.50;4.73;;;;;;;6.72;100.00;153087.81;4974167;28;20481;-77
2022/11/26 11:05:20;;;;;;;9.23;4.63;;;;;;;6.82;100.00;153111.06;4982499;28;20465;-77
2022/11/26 11:08:13;;;;;;;6.50;4.57;;;;;;;6.98;100.00;153153.69;4991165;28;20484;-78
2022/11/26 11:11:00;;;;;;;9.50;4.87;;;;;;;6.96;100.00;153148.53;4973264;28;20426;-77
2022/11/26 11:13:47;;;;;;;7.60;4.27;;;;;;;7.06;100.00;153173.03;4988462;28;20429;-77
2022/11/26 11:16:38;;;;;;;12.33;4.50;;;;;;;7.09;100.00;153182.09;4989624;28;20481;-77
2022/11/26 11:19:26;;;;;;;6.47;3.90;;;;;;;7.22;100.00;153215.66;4992777;28;20860;-77
2022/11/26 11:22:18;;;;;;;6.17;4.80;;;;;;;7.20;100.00;153209.22;4991592;28;20591;-77
2022/11/26 11:25:05;;;;;;;6.27;4.27;;;;;;;7.15;100.00;153197.56;4983224;28;20464;-77
2022/11/26 11:27:50;;;;;;;8.20;4.80;;;;;;;7.14;100.00;153195.00;4991616;28;20468;-77
2022/11/26 11:30:36;;;;;;;7.90;4.67;;;;;;;7.14;100.00;153193.72;4986091;28;20940;-77
2022/11/26 11:33:24;;;;;;;10.33;5.40;;;;;;;7.15;100.00;153197.56;4988615;28;20452;-77
2022/11/26 11:36:19;;;;;;;9.03;4.50;;;;;;;7.21;100.00;153211.78;5001672;28;20452;-77
2022/11/26 11:39:04;;;;;;;7.33;4.83;;;;;;;7.19;100.00;153207.91;5004603;28;20955;-78
2022/11/26 11:41:51;;;;;;;5.40;4.10;;;;;;;7.13;100.00;153192.41;4997865;28;21159;-78
2022/11/26 11:44:38;;;;;;;7.83;5.17;;;;;;;7.18;100.00;153205.31;5006155;28;20464;-77
2022/11/26 11:47:34;;;;;;;8.70;4.10;;;;;;;7.14;100.00;153195.00;4984593;28;20826;-78
2022/11/26 11:50:21;;;;;;;5.13;4.00;;;;;;;7.17;100.00;153202.75;4991177;28;20510;-77
2022/11/26 11:53:24;;;;;;;6.50;4.43;;;;;;;7.22;100.00;153215.66;4994433;28;20446;-77
2022/11/26 11:56:18;;;;;;;4.97;3.83;;;;;;;7.27;100.00;153227.28;4983802;28;20765;-77
2022/11/26 11:59:35;;;;;;;7.97;3.97;;;;;;;7.27;100.00;153228.56;4996624;28;20436;-77
2022/11/26 12:02:33;;;;;;;7.87;4.27;;;;;;;7.29;100.00;153233.72;4995102;28;20828;-77
2022/11/26 12:05:42;;;;;;;9.23;4.53;;;;;;;7.38;100.00;153255.69;4993565;28;20453;-78
2022/11/26 12:08:37;;;;;;;9.80;4.73;;;;;;;7.41;100.00;153262.16;5009873;28;20507;-77
2022/11/26 12:11:36;;;;;;;6.10;4.00;;;;;;;7.41;100.00;153263.44;4988749;28;20479;-77
2022/11/26 12:14:27;;;;;;;5.47;3.70;;;;;;;7.35;100.00;153249.25;4981808;28;20421;-77
2022/11/26 12:17:16;;;;;;;4.93;3.70;;;;;;;7.35;100.00;153247.94;4995954;28;20520;-77
2022/11/26 12:20:06;;;;;;;4.10;3.50;;;;;;;7.34;100.00;153246.63;4994562;28;20488;-77
2022/11/26 12:22:56;;;;;;;6.20;4.20;;;;;;;7.35;100.00;153249.25;4980345;28;20515;-77
2022/11/26 12:25:43;;;;;;;5.83;3.33;;;;;;;7.39;100.00;153258.25;4978220;28;20453;-78
2022/11/26 12:28:32;;;;;;;5.50;4.33;;;;;;;7.51;100.00;153287.97;4985973;28;20436;-77
2022/11/26 12:31:21;;;;;;;7.70;5.30;;;;;;;7.63;100.00;153320.25;4994411;28;20444;-77
2022/11/26 12:34:11;;;;;;;6.00;5.40;;;;;;;7.95;100.00;153402.94;5003719;28;20909;-77
2022/11/26 12:36:59;;;;;;;6.70;4.87;;;;;;;7.93;100.00;153396.47;4994559;28;20452;-77
2022/11/26 12:39:51;;;;;;;8.30;5.83;;;;;;;7.92;100.00;153395.19;4990682;28;20449;-77
2022/11/26 12:42:41;;;;;;;8.60;6.40;;;;;;;7.84;100.00;153374.50;4988722;28;20944;-77
2022/11/26 12:45:38;;;;;;;10.17;6.20;;;;;;;7.96;100.00;153405.53;4994043;28;20457;-77
2022/11/26 12:48:33;;;;;;;13.97;5.57;;;;;;;7.97;100.00;153406.78;4994233;28;20445;-78
2022/11/26 12:51:29;;;;;;;7.40;5.10;;;;;;;7.98;100.00;153410.69;4988016;28;20444;-78
2022/11/26 12:54:18;;;;;;;7.90;4.80;;;;;;;7.99;100.00;153413.25;4993609;28;20457;-78
2022/11/26 12:57:11;;;;;;;6.47;4.80;;;;;;;8.01;100.00;153417.16;4977093;28;20936;-78
2022/11/26 12:59:59;;;;;;;9.00;5.03;;;;;;;8.07;100.00;153432.66;4974805;28;20826;-78